AOJ74J LOWW-LOWS
Flight info
| Callsign | AOJ74J |
|---|---|
| Flight time | 0h 29m |
| Altitude | 16000 |
| Route | SOVIL DCT SITNI DCT BAGSI DCT MATIG MATIG2R |
| Aircraft | C750/M-SBDE3FGHRWXY/S |
Departure
| Time | 2026-04-22 18:03 |
|---|---|
| Airport | Vienna International Airport (LOWW) |
Arrival
| Time | 2026-04-22 18:33 |
|---|---|
| Airport | Salzburg Airport (LOWS) |
| Time | Latitude | Longitude | Altitude | Speed | Heading |
|---|---|---|---|---|---|
| 2026-04-22 17:41 | 48.12716 | 16.53616 | 613 ft | 0 kts | 296° |
| 2026-04-22 17:44 | 48.12716 | 16.53615 | 613 ft | 0 kts | 296° |
| 2026-04-22 17:50 | 48.12716 | 16.53616 | 613 ft | 0 kts | 296° |
| 2026-04-22 17:53 | 48.12716 | 16.53615 | 605 ft | 0 kts | 296° |
| 2026-04-22 17:55 | 48.12721 | 16.53600 | 605 ft | 3 kts | 296° |
| 2026-04-22 17:56 | 48.12718 | 16.53563 | 605 ft | 3 kts | 220° |
| 2026-04-22 17:56 | 48.12685 | 16.53545 | 613 ft | 5 kts | 180° |
| 2026-04-22 17:56 | 48.12660 | 16.53568 | 605 ft | 3 kts | 164° |
| 2026-04-22 17:56 | 48.12639 | 16.53562 | 607 ft | 4 kts | 195° |
| 2026-04-22 17:57 | 48.12597 | 16.53534 | 616 ft | 7 kts | 206° |
| 2026-04-22 17:57 | 48.12553 | 16.53504 | 605 ft | 9 kts | 203° |
| 2026-04-22 17:57 | 48.12481 | 16.53497 | 605 ft | 10 kts | 196° |
| 2026-04-22 17:57 | 48.12428 | 16.53532 | 605 ft | 9 kts | 116° |
| 2026-04-22 17:58 | 48.12394 | 16.53633 | 605 ft | 14 kts | 116° |
| 2026-04-22 17:58 | 48.12354 | 16.53760 | 607 ft | 13 kts | 116° |
| 2026-04-22 17:58 | 48.12316 | 16.53878 | 617 ft | 12 kts | 115° |
| 2026-04-22 17:58 | 48.12280 | 16.53988 | 605 ft | 12 kts | 116° |
| 2026-04-22 17:59 | 48.12230 | 16.54140 | 610 ft | 18 kts | 116° |
| 2026-04-22 17:59 | 48.12177 | 16.54303 | 613 ft | 17 kts | 116° |
| 2026-04-22 17:59 | 48.12128 | 16.54456 | 609 ft | 16 kts | 116° |
| 2026-04-22 17:59 | 48.12081 | 16.54601 | 605 ft | 15 kts | 116° |
| 2026-04-22 18:00 | 48.12052 | 16.54693 | 607 ft | 15 kts | 116° |
| 2026-04-22 18:00 | 48.11985 | 16.54896 | 611 ft | 18 kts | 117° |
| 2026-04-22 18:00 | 48.11927 | 16.55071 | 611 ft | 18 kts | 116° |
| 2026-04-22 18:00 | 48.11874 | 16.55237 | 612 ft | 17 kts | 115° |
| 2026-04-22 18:01 | 48.11825 | 16.55396 | 608 ft | 16 kts | 118° |
| 2026-04-22 18:01 | 48.11772 | 16.55548 | 605 ft | 16 kts | 116° |
| 2026-04-22 18:01 | 48.11724 | 16.55695 | 615 ft | 15 kts | 116° |
| 2026-04-22 18:01 | 48.11679 | 16.55833 | 609 ft | 14 kts | 115° |
| 2026-04-22 18:02 | 48.11633 | 16.55974 | 605 ft | 17 kts | 116° |
| 2026-04-22 18:02 | 48.11572 | 16.56130 | 612 ft | 16 kts | 150° |
| 2026-04-22 18:02 | 48.11504 | 16.56051 | 607 ft | 16 kts | 260° |
| 2026-04-22 18:02 | 48.11500 | 16.55853 | 605 ft | 24 kts | 274° |
| 2026-04-22 18:03 | 48.11653 | 16.55273 | 616 ft | 110 kts | 296° |
| 2026-04-22 18:03 | 48.12044 | 16.54073 | 976 ft | 135 kts | 300° |
| 2026-04-22 18:03 | 48.12385 | 16.52629 | 1386 ft | 164 kts | 281° |
| 2026-04-22 18:03 | 48.12225 | 16.50803 | 1831 ft | 191 kts | 255° |
| 2026-04-22 18:04 | 48.11459 | 16.48976 | 2217 ft | 221 kts | 237° |
| 2026-04-22 18:04 | 48.10492 | 16.47119 | 2911 ft | 231 kts | 236° |
| 2026-04-22 18:04 | 48.09477 | 16.45105 | 3367 ft | 254 kts | 237° |
| 2026-04-22 18:04 | 48.08384 | 16.42870 | 4061 ft | 271 kts | 238° |
| 2026-04-22 18:05 | 48.07269 | 16.40609 | 5225 ft | 271 kts | 237° |
| 2026-04-22 18:05 | 48.06132 | 16.38313 | 6207 ft | 278 kts | 237° |
| 2026-04-22 18:05 | 48.04980 | 16.35987 | 7296 ft | 278 kts | 237° |
| 2026-04-22 18:05 | 48.03534 | 16.33971 | 8262 ft | 289 kts | 219° |
| 2026-04-22 18:06 | 48.01879 | 16.32317 | 9056 ft | 292 kts | 215° |
| 2026-04-22 18:06 | 48.00172 | 16.30666 | 9125 ft | 295 kts | 215° |
| 2026-04-22 18:06 | 47.98406 | 16.28950 | 9924 ft | 300 kts | 215° |
| 2026-04-22 18:06 | 47.96653 | 16.27246 | 10826 ft | 308 kts | 215° |
| 2026-04-22 18:07 | 47.94787 | 16.25408 | 11079 ft | 334 kts | 215° |
| 2026-04-22 18:07 | 47.93097 | 16.22873 | 11027 ft | 360 kts | 240° |
| 2026-04-22 18:07 | 47.92426 | 16.19396 | 11704 ft | 347 kts | 271° |
| 2026-04-22 18:07 | 47.92903 | 16.15950 | 12583 ft | 332 kts | 296° |
| 2026-04-22 18:08 | 47.93940 | 16.12916 | 13628 ft | 326 kts | 302° |
| 2026-04-22 18:08 | 47.94995 | 16.09907 | 14352 ft | 335 kts | 301° |
| 2026-04-22 18:08 | 47.95917 | 16.06620 | 14397 ft | 363 kts | 292° |
| 2026-04-22 18:08 | 47.96477 | 16.02876 | 14963 ft | 372 kts | 283° |
| 2026-04-22 18:09 | 47.96831 | 15.99038 | 15665 ft | 376 kts | 281° |
| 2026-04-22 18:09 | 47.97204 | 15.95147 | 16207 ft | 383 kts | 283° |
| 2026-04-22 18:09 | 47.97759 | 15.91148 | 16225 ft | 403 kts | 287° |
| 2026-04-22 18:09 | 47.98394 | 15.86970 | 16220 ft | 423 kts | 285° |
| 2026-04-22 18:10 | 47.98951 | 15.82593 | 16216 ft | 433 kts | 283° |
| 2026-04-22 18:10 | 47.99467 | 15.78118 | 16241 ft | 440 kts | 283° |
| 2026-04-22 18:10 | 48.00038 | 15.73631 | 16241 ft | 440 kts | 284° |
| 2026-04-22 18:10 | 48.00652 | 15.69138 | 16234 ft | 441 kts | 285° |
| 2026-04-22 18:11 | 48.01236 | 15.64635 | 16228 ft | 440 kts | 284° |
| 2026-04-22 18:11 | 48.01729 | 15.60128 | 16224 ft | 443 kts | 279° |
| 2026-04-22 18:11 | 48.01874 | 15.55522 | 16230 ft | 446 kts | 275° |
| 2026-04-22 18:11 | 48.02017 | 15.50899 | 16225 ft | 446 kts | 276° |
| 2026-04-22 18:12 | 48.02173 | 15.46273 | 16223 ft | 447 kts | 276° |
| 2026-04-22 18:12 | 48.02296 | 15.41634 | 16233 ft | 447 kts | 275° |
| 2026-04-22 18:12 | 48.02366 | 15.38563 | 16235 ft | 447 kts | 275° |
| 2026-04-22 18:12 | 48.02527 | 15.32365 | 16234 ft | 442 kts | 276° |
| 2026-04-22 18:13 | 48.02658 | 15.27786 | 16237 ft | 442 kts | 275° |
| 2026-04-22 18:13 | 48.02777 | 15.23200 | 16234 ft | 442 kts | 275° |
| 2026-04-22 18:13 | 48.02886 | 15.18604 | 16233 ft | 443 kts | 275° |
| 2026-04-22 18:13 | 48.03001 | 15.14012 | 16243 ft | 442 kts | 275° |
| 2026-04-22 18:14 | 48.03118 | 15.09420 | 16246 ft | 442 kts | 275° |
| 2026-04-22 18:14 | 48.03230 | 15.04819 | 16242 ft | 444 kts | 275° |
| 2026-04-22 18:14 | 48.03324 | 15.00224 | 16240 ft | 442 kts | 274° |
| 2026-04-22 18:14 | 48.03334 | 14.95620 | 16246 ft | 443 kts | 273° |
| 2026-04-22 18:15 | 48.03295 | 14.91011 | 16250 ft | 444 kts | 272° |
| 2026-04-22 18:15 | 48.03243 | 14.86398 | 16247 ft | 444 kts | 272° |
| 2026-04-22 18:15 | 48.03217 | 14.81854 | 16248 ft | 443 kts | 273° |
| 2026-04-22 18:15 | 48.03198 | 14.77185 | 16247 ft | 444 kts | 272° |
| 2026-04-22 18:16 | 48.03160 | 14.72632 | 16247 ft | 444 kts | 272° |
| 2026-04-22 18:16 | 48.03114 | 14.68023 | 16248 ft | 444 kts | 272° |
| 2026-04-22 18:16 | 48.03077 | 14.63413 | 16248 ft | 444 kts | 272° |
| 2026-04-22 18:16 | 48.03042 | 14.58804 | 16237 ft | 444 kts | 272° |
| 2026-04-22 18:17 | 48.02998 | 14.54174 | 16243 ft | 445 kts | 272° |
| 2026-04-22 18:17 | 48.02950 | 14.49557 | 16245 ft | 445 kts | 272° |
| 2026-04-22 18:17 | 48.02903 | 14.44937 | 16247 ft | 445 kts | 272° |
| 2026-04-22 18:17 | 48.02857 | 14.40313 | 16247 ft | 445 kts | 272° |
| 2026-04-22 18:18 | 48.02808 | 14.35694 | 16248 ft | 445 kts | 272° |
| 2026-04-22 18:18 | 48.02754 | 14.31069 | 16247 ft | 445 kts | 272° |
| 2026-04-22 18:18 | 48.02700 | 14.26452 | 15998 ft | 438 kts | 272° |
| 2026-04-22 18:18 | 48.02643 | 14.22100 | 15511 ft | 402 kts | 272° |
| 2026-04-22 18:19 | 48.02592 | 14.18051 | 14994 ft | 382 kts | 273° |
| 2026-04-22 18:19 | 48.02549 | 14.14121 | 14467 ft | 379 kts | 273° |
| 2026-04-22 18:19 | 48.02500 | 14.10192 | 13965 ft | 377 kts | 272° |
| 2026-04-22 18:19 | 48.02443 | 14.06298 | 13418 ft | 372 kts | 272° |
| 2026-04-22 18:20 | 48.02388 | 14.02461 | 12891 ft | 367 kts | 272° |
| 2026-04-22 18:20 | 48.02339 | 13.98612 | 12363 ft | 384 kts | 272° |
| 2026-04-22 18:20 | 48.02290 | 13.94483 | 12274 ft | 408 kts | 272° |
| 2026-04-22 18:20 | 48.02220 | 13.90204 | 12274 ft | 415 kts | 271° |
| 2026-04-22 18:21 | 48.02144 | 13.85873 | 12269 ft | 419 kts | 271° |
| 2026-04-22 18:21 | 48.02077 | 13.81512 | 12270 ft | 420 kts | 271° |
| 2026-04-22 18:21 | 48.02013 | 13.77227 | 12006 ft | 397 kts | 271° |
| 2026-04-22 18:21 | 48.01945 | 13.73277 | 11484 ft | 366 kts | 271° |
| 2026-04-22 18:22 | 48.01883 | 13.69616 | 11002 ft | 341 kts | 271° |
| 2026-04-22 18:22 | 48.01828 | 13.66184 | 10532 ft | 321 kts | 271° |
| 2026-04-22 18:22 | 48.01773 | 13.62937 | 10064 ft | 306 kts | 271° |
| 2026-04-22 18:22 | 48.01718 | 13.59823 | 9506 ft | 295 kts | 271° |
| 2026-04-22 18:23 | 48.01665 | 13.56848 | 8972 ft | 287 kts | 271° |
| 2026-04-22 18:23 | 48.01612 | 13.53855 | 8439 ft | 283 kts | 271° |
| 2026-04-22 18:23 | 48.01560 | 13.50853 | 7931 ft | 299 kts | 271° |
| 2026-04-22 18:24 | 48.01442 | 13.44678 | 6935 ft | 296 kts | 270° |
| 2026-04-22 18:24 | 48.01383 | 13.41647 | 6452 ft | 287 kts | 270° |
| 2026-04-22 18:24 | 48.01269 | 13.35754 | 5822 ft | 283 kts | 270° |
| 2026-04-22 18:25 | 48.01212 | 13.32814 | 5548 ft | 282 kts | 270° |
| 2026-04-22 18:25 | 48.01152 | 13.29890 | 5301 ft | 281 kts | 270° |
| 2026-04-22 18:25 | 48.01093 | 13.26973 | 5049 ft | 281 kts | 270° |
| 2026-04-22 18:26 | 48.00970 | 13.21175 | 5022 ft | 280 kts | 270° |
| 2026-04-22 18:26 | 48.00910 | 13.18266 | 5018 ft | 280 kts | 270° |
| 2026-04-22 18:26 | 48.00848 | 13.15354 | 5022 ft | 281 kts | 270° |
| 2026-04-22 18:26 | 48.00785 | 13.12440 | 5018 ft | 281 kts | 270° |
| 2026-04-22 18:27 | 48.00720 | 13.09521 | 5019 ft | 281 kts | 270° |
| 2026-04-22 18:27 | 48.00656 | 13.06607 | 5019 ft | 281 kts | 270° |
| 2026-04-22 18:27 | 48.00591 | 13.03685 | 5020 ft | 281 kts | 270° |
| 2026-04-22 18:27 | 48.00525 | 13.00767 | 5019 ft | 282 kts | 270° |
| 2026-04-22 18:28 | 48.00459 | 12.97957 | 5012 ft | 264 kts | 270° |
| 2026-04-22 18:28 | 48.00396 | 12.95261 | 4995 ft | 245 kts | 270° |
| 2026-04-22 18:28 | 48.00273 | 12.92745 | 4945 ft | 247 kts | 262° |
| 2026-04-22 18:28 | 47.99430 | 12.90591 | 4777 ft | 250 kts | 225° |
| 2026-04-22 18:29 | 47.97888 | 12.89426 | 4789 ft | 254 kts | 192° |
| 2026-04-22 18:29 | 47.96148 | 12.89669 | 4841 ft | 254 kts | 162° |
| 2026-04-22 18:29 | 47.94523 | 12.90705 | 4541 ft | 248 kts | 154° |
| 2026-04-22 18:29 | 47.93007 | 12.91738 | 4202 ft | 234 kts | 156° |
| 2026-04-22 18:30 | 47.91524 | 12.92666 | 3888 ft | 225 kts | 157° |
| 2026-04-22 18:30 | 47.88797 | 12.94386 | 3270 ft | 189 kts | 156° |
| 2026-04-22 18:30 | 47.87631 | 12.95125 | 3038 ft | 182 kts | 157° |
| 2026-04-22 18:31 | 47.86479 | 12.95858 | 2803 ft | 179 kts | 157° |
| 2026-04-22 18:31 | 47.85336 | 12.96585 | 2554 ft | 178 kts | 157° |
| 2026-04-22 18:31 | 47.84221 | 12.97294 | 2288 ft | 163 kts | 158° |
| 2026-04-22 18:31 | 47.83260 | 12.97904 | 2064 ft | 140 kts | 158° |
| 2026-04-22 18:32 | 47.82680 | 12.98275 | 1950 ft | 135 kts | 158° |
| 2026-04-22 18:32 | 47.81549 | 12.98995 | 1716 ft | 132 kts | 158° |
| 2026-04-22 18:32 | 47.80707 | 12.99529 | 1540 ft | 130 kts | 158° |
| 2026-04-22 18:32 | 47.79891 | 13.00039 | 1420 ft | 119 kts | 159° |
| 2026-04-22 18:33 | 47.79209 | 13.00470 | 1417 ft | 91 kts | 155° |
| 2026-04-22 18:33 | 47.78791 | 13.00730 | 1417 ft | 43 kts | 157° |
| 2026-04-22 18:33 | 47.78602 | 13.00847 | 1416 ft | 17 kts | 170° |
| 2026-04-22 18:33 | 47.78549 | 13.00772 | 1416 ft | 9 kts | 249° |
| 2026-04-22 18:34 | 47.78533 | 13.00716 | 1416 ft | 9 kts | 249° |
| 2026-04-22 18:34 | 47.78543 | 13.00637 | 1416 ft | 8 kts | 311° |
| 2026-04-22 18:34 | 47.78601 | 13.00590 | 1416 ft | 11 kts | 336° |
| 2026-04-22 18:34 | 47.78683 | 13.00538 | 1416 ft | 14 kts | 336° |
| 2026-04-22 18:35 | 47.78783 | 13.00475 | 1416 ft | 17 kts | 337° |
| 2026-04-22 18:35 | 47.78885 | 13.00409 | 1416 ft | 15 kts | 335° |
| 2026-04-22 18:35 | 47.78981 | 13.00349 | 1416 ft | 14 kts | 337° |
| 2026-04-22 18:35 | 47.79073 | 13.00291 | 1416 ft | 16 kts | 337° |
| 2026-04-22 18:36 | 47.79175 | 13.00227 | 1416 ft | 15 kts | 336° |
| 2026-04-22 18:36 | 47.79270 | 13.00166 | 1417 ft | 14 kts | 336° |
| 2026-04-22 18:36 | 47.79359 | 13.00109 | 1417 ft | 13 kts | 337° |
| 2026-04-22 18:36 | 47.79443 | 13.00059 | 1417 ft | 13 kts | 336° |
| 2026-04-22 18:37 | 47.79521 | 13.00009 | 1417 ft | 12 kts | 336° |
| 2026-04-22 18:37 | 47.79564 | 12.99960 | 1417 ft | 6 kts | 276° |
| 2026-04-22 18:37 | 47.79549 | 12.99903 | 1417 ft | 6 kts | 245° |
| 2026-04-22 18:37 | 47.79541 | 12.99858 | 1417 ft | 3 kts | 278° |
| 2026-04-22 18:38 | 47.79554 | 12.99840 | 1417 ft | 2 kts | 333° |
| 2026-04-22 18:38 | 47.79564 | 12.99843 | 1417 ft | 1 kts | 32° |
| 2026-04-22 18:38 | 47.79569 | 12.99861 | 1417 ft | 3 kts | 68° |
| 2026-04-22 18:39 | 47.79576 | 12.99885 | 1417 ft | 0 kts | 67° |